South Lyme, Connecticut
Current Conditions -  °F | °C
As of 4:56 PM on Tuesday 25 Nov 2014 (Local Time) from KGON Reporting Station
Clear Clear  
Wind Chill: 51°   Ceiling: Unl
Heat Index: 51°   Visibility: 9mi
Dew Point: 39°   Wind: 9mph
Humidity: 63%   Direction: 250°WSW
Pressure: 30"   Gusts: NA
Location:  41.31°N, 72.26°W
Report Text: KGON 252156Z 25008KT 9SM CLR 11/04 A3000 RMK AO2 SLP159 T01060039
Loading
Personal Weather Stations






























Interactive Weather Map New forecast layout! Learn more

10-Day Weather Forecast

Advertisements
Track Severe Weather on mobile